Time;durP1;ratioP1;P1;durP2;ratioP2;P2;SDS_P1;SDS_P2;PMS_P1;PMS_P2;Temp;Humidity;BMP_temperature;BMP_pressure;BME280_temperature;BME280_humidity;BME280_pressure;Samples;Min_cycle;Max_cycle;Signal;HPM_P1;HPM_P2
2021/11/28 00:00:09;;;;;;;7.50;5.30;;;3.20;78.80;;;1.04;89.15;93998.03;4973178;28;20023;-66
2021/11/28 00:02:35;;;;;;;8.45;5.43;;;3.20;78.80;;;1.06;88.86;94010.78;4972514;28;20062;-67
2021/11/28 00:05:02;;;;;;;8.80;5.30;;;3.20;79.00;;;1.06;89.55;94008.19;4988742;28;20517;-66
2021/11/28 00:10:20;;;;;;;8.98;5.25;;;3.30;78.60;;;1.04;89.11;93998.03;4959499;28;20046;-66
2021/11/28 00:12:48;;;;;;;7.65;4.95;;;3.10;78.60;;;1.03;88.85;93995.63;4989000;28;20034;-66
2021/11/28 00:15:18;;;;;;;9.25;5.40;;;3.10;78.60;;;1.02;88.66;94005.19;4989256;28;20198;-66
2021/11/28 00:17:44;;;;;;;8.35;5.20;;;3.10;78.70;;;1.01;88.81;93987.25;4973573;28;20038;-66
2021/11/28 00:20:13;;;;;;;8.18;5.10;;;3.10;78.60;;;1.00;88.92;93996.00;4988589;28;20189;-67
2021/11/28 00:22:40;;;;;;;6.32;4.65;;;3.10;78.40;;;0.99;88.42;93995.19;4972207;28;20034;-66
2021/11/28 00:25:07;;;;;;;8.10;5.05;;;3.10;78.30;;;1.00;88.60;93986.44;4972251;28;20041;-65
2021/11/28 00:27:33;;;;;;;7.00;4.97;;;3.10;78.60;;;1.01;88.46;93985.47;4972677;28;20644;-66
2021/11/28 00:29:59;;;;;;;7.18;4.15;;;3.20;78.70;;;1.02;88.71;93984.47;4989159;28;20303;-66
2021/11/28 00:32:25;;;;;;;9.25;5.18;;;3.20;78.70;;;1.04;88.83;93982.50;4994190;28;20054;-66
2021/11/28 00:34:51;;;;;;;9.35;5.13;;;3.30;78.70;;;1.03;88.78;93985.28;5001333;28;20454;-65
2021/11/28 00:37:17;;;;;;;6.75;4.60;;;3.20;78.80;;;1.05;88.80;93983.31;4949381;28;20158;-66
2021/11/28 00:39:45;;;;;;;7.75;4.88;;;3.20;78.90;;;1.04;89.02;93987.69;5005063;28;20035;-66
2021/11/28 00:42:11;;;;;;;9.27;5.80;;;3.30;78.80;;;1.06;88.79;93985.72;4972337;28;20046;-66
2021/11/28 00:44:37;;;;;;;10.23;6.28;;;3.30;79.00;;;1.06;89.08;93985.72;4988200;28;20038;-67
2021/11/28 00:47:03;;;;;;;9.60;6.32;;;3.30;78.60;;;1.07;89.27;93992.50;4966308;28;20405;-65
2021/11/28 00:49:29;;;;;;;7.90;5.30;;;3.30;78.40;;;1.08;88.52;93996.69;4972000;28;20065;-65
2021/11/28 00:51:57;;;;;;;8.18;5.40;;;3.30;78.20;;;1.07;89.13;93992.50;4972220;28;20038;-65
2021/11/28 00:54:28;;;;;;;8.73;5.10;;;3.30;78.30;;;1.07;89.04;93987.31;4956048;28;20222;-66
2021/11/28 00:56:54;;;;;;;9.30;5.68;;;3.30;78.40;;;1.08;88.67;93986.31;4956113;28;20046;-65
2021/11/28 00:59:20;;;;;;;8.18;5.60;;;3.30;78.60;;;1.08;88.65;93988.91;4972204;28;20520;-66
2021/11/28 01:01:45;;;;;;;10.18;5.68;;;3.30;78.70;;;1.08;88.88;93986.31;4988156;28;20042;-66
2021/11/28 01:04:11;;;;;;;9.77;5.95;;;3.30;78.50;;;1.08;89.29;93994.09;4955333;28;20065;-66
2021/11/28 01:06:37;;;;;;;10.55;6.50;;;3.30;78.40;;;1.07;89.37;93992.50;4971479;28;20058;-67
2021/11/28 01:09:05;;;;;;;7.68;5.20;;;3.30;78.60;;;1.10;88.85;93997.28;4972056;28;20116;-65
2021/11/28 01:11:31;;;;;;;8.60;5.38;;;3.30;78.60;;;1.10;89.22;94007.66;4956145;28;20522;-66
2021/11/28 01:13:56;;;;;;;9.38;5.82;;;3.30;78.70;;;1.10;88.87;94001.66;4974541;28;20124;-66
2021/11/28 01:16:22;;;;;;;9.23;6.20;;;3.30;78.70;;;1.09;89.00;94006.06;4974531;28;20061;-65
2021/11/28 01:18:49;;;;;;;9.40;5.60;;;3.30;78.70;;;1.08;89.57;93999.28;4957996;28;20711;-65
2021/11/28 01:21:14;;;;;;;9.13;5.57;;;3.30;78.90;;;1.09;89.40;94000.88;4974489;28;20026;-66
2021/11/28 01:23:40;;;;;;;8.10;4.75;;;3.30;78.90;;;1.08;88.99;94014.81;4958453;28;20615;-66
2021/11/28 01:26:06;;;;;;;8.93;5.38;;;3.20;78.80;;;1.08;88.72;94014.81;4974043;28;20034;-66
2021/11/28 01:28:32;;;;;;;8.18;4.88;;;3.20;78.80;;;1.07;88.64;94014.97;4990820;28;20375;-66
2021/11/28 01:30:58;;;;;;;8.85;5.10;;;3.20;78.70;;;1.04;89.16;94002.41;4995930;28;20034;-66
2021/11/28 01:33:23;;;;;;;8.07;5.07;;;3.10;78.60;;;0.99;88.42;94000.38;4989965;28;20121;-65
2021/11/28 01:35:49;;;;;;;7.72;5.07;;;3.10;78.80;;;1.02;88.88;93989.66;4974045;28;20042;-65
2021/11/28 01:38:19;;;;;;;7.82;5.15;;;3.20;78.90;;;1.01;89.52;94003.56;4958386;28;20034;-66
2021/11/28 01:40:49;;;;;;;9.30;5.87;;;3.20;78.90;;;1.02;89.25;94000.00;4974468;28;20038;-65
2021/11/28 01:43:16;;;;;;;9.13;5.13;;;3.20;78.70;;;1.03;88.94;94004.19;4974280;28;20113;-64
2021/11/28 01:45:43;;;;;;;7.35;5.25;;;3.20;78.50;;;1.03;89.08;94006.78;4973859;28;20104;-65
2021/11/28 01:48:10;;;;;;;7.97;5.32;;;3.20;78.60;;;1.03;89.32;94011.97;4954544;28;20038;-65
2021/11/28 01:50:37;;;;;;;9.35;5.50;;;3.30;78.80;;;1.04;89.51;94018.75;4984891;28;20101;-65
2021/11/28 01:53:06;;;;;;;10.07;5.55;;;3.30;78.90;;;1.02;89.21;94025.09;4989859;28;20027;-66
2021/11/28 01:55:32;;;;;;;8.20;5.25;;;3.10;78.50;;;0.95;89.33;94021.63;4973879;28;20035;-66
2021/11/28 01:57:59;;;;;;;8.65;5.60;;;3.00;79.10;;;0.91;89.46;94021.19;4990459;28;20379;-65
2021/11/28 02:00:36;;;;;;;9.00;5.13;;;2.90;79.30;;;0.86;89.03;94031.25;4989886;28;20061;-66
2021/11/28 02:03:02;;;;;;;8.57;5.35;;;2.80;79.70;;;0.82;89.61;94030.03;4958493;28;20037;-66
2021/11/28 02:05:29;;;;;;;8.05;5.05;;;2.80;79.80;;;0.82;89.29;94024.84;4957504;28;20038;-67
2021/11/28 02:07:55;;;;;;;8.00;5.25;;;2.90;79.80;;;0.82;89.17;94012.72;4989377;28;20040;-67
2021/11/28 02:10:21;;;;;;;11.68;7.25;;;2.90;79.50;;;0.81;89.20;94007.72;4989474;28;20518;-67
2021/11/28 02:12:46;;;;;;;8.93;5.55;;;2.90;79.20;;;0.78;89.10;94006.28;4972789;28;20053;-65
2021/11/28 02:15:12;;;;;;;10.43;5.18;;;2.80;79.30;;;0.78;89.12;94021.00;4972895;28;20081;-66
2021/11/28 02:17:38;;;;;;;8.63;5.28;;;2.80;79.20;;;0.76;89.06;94021.19;4990035;28;20088;-66
2021/11/28 02:20:05;;;;;;;10.65;5.75;;;2.70;79.30;;;0.74;88.54;94027.53;4973375;28;20041;-66
2021/11/28 02:22:31;;;;;;;8.48;4.88;;;2.70;79.50;;;0.71;89.15;94022.72;4989247;28;20046;-67
2021/11/28 02:24:56;;;;;;;7.70;5.03;;;2.70;79.40;;;0.68;89.12;94031.66;4968261;28;20089;-66
2021/11/28 02:27:22;;;;;;;8.57;5.43;;;2.60;79.60;;;0.67;89.20;94026.63;4989333;28;20107;-65
2021/11/28 02:29:48;;;;;;;8.30;5.18;;;2.60;79.60;;;0.67;89.09;94026.63;4973003;28;20465;-66
2021/11/28 02:32:15;;;;;;;6.72;3.88;;;2.60;79.70;;;0.66;88.92;94005.13;4972966;28;20566;-66
2021/11/28 02:34:40;;;;;;;5.85;3.60;;;2.50;79.90;;;0.66;88.96;94007.72;4985514;28;20506;-66
2021/11/28 02:37:06;;;;;;;8.70;4.18;;;2.60;79.90;;;0.65;89.85;94002.72;4973118;28;20038;-66
2021/11/28 02:39:35;;;;;;;8.23;4.53;;;2.60;80.40;;;0.67;90.09;94000.75;4989423;28;20034;-66
2021/11/28 02:42:01;;;;;;;5.70;3.92;;;2.60;80.40;;;0.64;89.88;93988.19;4989292;28;20421;-66
2021/11/28 02:44:27;;;;;;;6.90;3.88;;;2.60;80.90;;;0.65;90.11;93990.59;4957077;28;20057;-66
2021/11/28 02:46:53;;;;;;;7.63;3.38;;;2.60;81.10;;;0.65;90.35;93989.78;4956467;28;20034;-66
2021/11/28 02:49:19;;;;;;;6.00;3.53;;;2.70;81.30;;;0.64;90.23;93975.25;4956652;28;20045;-67
2021/11/28 02:51:44;;;;;;;5.13;3.10;;;2.60;81.30;;;0.64;90.67;93993.38;4968792;28;20038;-66
2021/11/28 02:54:10;;;;;;;6.32;3.00;;;2.60;81.60;;;0.65;90.38;94005.31;4972617;28;20069;-66
2021/11/28 02:56:36;;;;;;;5.65;2.95;;;2.70;81.60;;;0.65;91.00;94013.06;4979114;28;20041;-66
2021/11/28 02:59:03;;;;;;;6.03;3.33;;;2.60;81.90;;;0.65;90.62;94010.47;4989257;28;20109;-65
2021/11/28 03:01:29;;;;;;;4.85;2.65;;;2.70;82.00;;;0.63;91.45;93997.72;4988570;28;20038;-66
2021/11/28 03:03:54;;;;;;;5.30;3.22;;;2.60;82.20;;;0.60;91.17;93996.31;4956051;28;20039;-66
2021/11/28 03:06:20;;;;;;;5.25;2.92;;;2.60;82.50;;;0.62;91.49;93988.38;4988286;28;20034;-65
2021/11/28 03:08:46;;;;;;;5.32;2.63;;;2.70;82.30;;;0.64;91.98;93976.06;4956088;28;20039;-65
2021/11/28 03:11:14;;;;;;;4.15;2.53;;;2.70;82.40;;;0.66;92.44;93968.91;4956584;28;20042;-66
2021/11/28 03:13:51;;;;;;;4.57;2.40;;;2.80;82.10;;;0.67;92.59;93967.13;4971923;28;20030;-66
2021/11/28 03:16:19;;;;;;;3.95;2.38;;;2.80;82.00;;;0.68;91.76;93963.56;4956886;28;20027;-66
2021/11/28 03:18:48;;;;;;;4.00;2.22;;;2.80;81.80;;;0.71;91.58;93966.63;4949221;23;20121;-67
2021/11/28 03:21:18;;;;;;;3.65;2.25;;;2.90;81.70;;;0.70;91.88;93961.63;4907977;29;20103;-67
2021/11/28 03:23:45;;;;;;;4.50;2.00;;;3.00;81.60;;;0.71;91.76;93955.47;4929186;29;20039;-66
2021/11/28 03:26:28;;;;;;;4.03;2.20;;;3.00;81.40;;;0.76;92.76;93963.47;4930810;28;20051;-67
2021/11/28 03:29:04;;;;;;;3.70;2.17;;;3.00;81.30;;;0.77;92.57;93968.47;4928239;28;20052;-66
2021/11/28 03:31:34;;;;;;;5.45;1.90;;;3.00;81.30;;;0.79;92.23;93963.09;4930214;28;20056;-66
2021/11/28 03:34:00;;;;;;;3.75;1.90;;;3.00;81.10;;;0.81;92.58;93961.13;4930168;28;20028;-67
2021/11/28 03:36:27;;;;;;;2.83;1.55;;;3.00;80.90;;;0.78;91.50;93956.34;4931546;28;20222;-66
2021/11/28 03:38:53;;;;;;;3.78;1.92;;;2.90;80.70;;;0.76;91.55;93958.31;4883083;28;20489;-67
2021/11/28 03:41:20;;;;;;;4.28;1.70;;;2.90;81.00;;;0.78;91.78;93958.91;4918954;28;20068;-67
2021/11/28 03:43:47;;;;;;;2.88;1.73;;;3.00;81.00;;;0.78;91.54;93956.34;4930641;28;20454;-66
2021/11/28 03:46:12;;;;;;;2.45;1.52;;;3.00;81.00;;;0.76;91.64;93960.88;4914853;29;20421;-66
2021/11/28 03:48:38;;;;;;;3.78;1.55;;;3.00;80.90;;;0.76;92.08;93960.88;4930777;28;20035;-67
2021/11/28 03:51:04;;;;;;;3.35;1.90;;;2.90;81.00;;;0.77;92.00;93959.91;4931601;28;20043;-66
2021/11/28 03:53:30;;;;;;;4.82;2.20;;;3.00;81.00;;;0.77;92.16;93954.72;4930933;28;20615;-66
2021/11/28 03:55:56;;;;;;;5.28;1.92;;;3.00;81.10;;;0.80;92.21;93960.34;4915051;29;20069;-66
2021/11/28 03:58:22;;;;;;;3.15;1.73;;;3.10;81.00;;;0.81;92.28;93963.72;4915561;28;20032;-66
2021/11/28 04:00:48;;;;;;;3.47;1.85;;;3.10;81.10;;;0.80;91.89;93960.34;4930539;28;20032;-67
2021/11/28 04:03:14;;;;;;;3.72;1.95;;;3.10;81.00;;;0.83;92.41;93961.75;4884126;29;20048;-66
2021/11/28 04:05:40;;;;;;;5.40;1.98;;;3.10;81.00;;;0.84;92.09;93960.78;4914985;29;20039;-66
2021/11/28 04:08:06;;;;;;;4.05;2.03;;;3.10;81.00;;;0.83;92.53;93956.59;4931071;28;20038;-66
2021/11/28 04:10:31;;;;;;;2.88;1.88;;;3.10;80.90;;;0.84;92.70;93951.22;4929847;28;20123;-66
2021/11/28 04:12:57;;;;;;;3.70;2.20;;;3.10;81.00;;;0.85;92.36;93957.19;4921425;28;20059;-66
2021/11/28 04:15:23;;;;;;;3.15;2.13;;;3.10;80.90;;;0.85;92.72;93950.25;4912087;29;20115;-66
2021/11/28 04:17:49;;;;;;;4.80;2.60;;;3.10;81.10;;;0.84;91.95;93953.00;4917284;29;20095;-66
2021/11/28 04:20:14;;;;;;;5.10;2.63;;;3.10;81.00;;;0.83;92.19;93948.81;4904193;29;20119;-66
2021/11/28 04:22:40;;;;;;;4.50;2.55;;;3.10;81.20;;;0.84;92.25;93945.25;4903533;28;20045;-67
2021/11/28 04:25:08;;;;;;;3.08;2.05;;;3.10;81.10;;;0.83;92.52;93934.09;4930823;29;20506;-66
2021/11/28 04:27:34;;;;;;;4.63;2.70;;;3.10;81.10;;;0.86;92.63;93938.91;4930268;28;20062;-66
2021/11/28 04:29:59;;;;;;;5.47;2.70;;;3.10;81.10;;;0.84;92.74;93942.66;4916703;29;20118;-67
2021/11/28 04:32:25;;;;;;;5.05;2.50;;;3.10;81.10;;;0.86;92.17;93948.44;4922471;29;20043;-66
2021/11/28 04:34:51;;;;;;;5.20;2.90;;;3.10;81.00;;;0.83;92.68;93946.22;4924980;28;20038;-67
2021/11/28 04:37:17;;;;;;;4.20;2.25;;;3.10;81.10;;;0.85;92.60;93946.84;4934012;28;20062;-67
2021/11/28 04:39:43;;;;;;;3.70;2.30;;;3.10;81.00;;;0.81;92.23;93938.66;4933984;29;20032;-66
2021/11/28 04:42:08;;;;;;;5.68;2.30;;;3.10;80.90;;;0.83;92.51;93941.84;4917951;29;20040;-67
2021/11/28 04:44:34;;;;;;;4.38;2.35;;;3.00;80.90;;;0.83;92.11;93949.63;4935224;28;20128;-66
2021/11/28 04:47:00;;;;;;;3.88;1.95;;;3.00;81.00;;;0.83;92.42;93948.81;4934448;28;20094;-66
2021/11/28 04:49:26;;;;;;;4.75;1.95;;;3.10;81.00;;;0.85;92.98;93947.66;4917973;29;20115;-66
2021/11/28 04:51:51;;;;;;;4.30;2.55;;;3.10;81.00;;;0.78;92.11;93936.44;4935134;28;20040;-67
2021/11/28 04:54:17;;;;;;;3.03;2.08;;;3.10;81.00;;;0.85;93.04;93955.41;4904191;29;20043;-66
2021/11/28 04:56:43;;;;;;;4.57;2.08;;;3.10;80.90;;;0.84;92.86;93953.00;4942449;28;20035;-67
2021/11/28 04:59:09;;;;;;;3.45;2.20;;;3.10;80.80;;;0.84;92.38;93958.19;4902505;29;20035;-66
2021/11/28 05:01:34;;;;;;;3.28;2.00;;;3.10;80.90;;;0.84;92.80;93960.78;4933308;28;20039;-66
2021/11/28 05:04:00;;;;;;;3.88;2.33;;;3.10;80.90;;;0.83;91.96;93954.00;4917818;29;20054;-66
2021/11/28 05:06:27;;;;;;;45.72;24.85;;;3.10;80.90;;;0.84;92.61;93950.41;4902022;29;20040;-66
2021/11/28 05:08:53;;;;;;;44.45;25.48;;;3.10;81.10;;;0.86;92.51;93948.44;4917054;28;20114;-67
2021/11/28 05:11:18;;;;;;;67.03;43.35;;;3.10;81.10;;;0.88;92.52;93954.25;4917958;29;20123;-66
2021/11/28 05:13:44;;;;;;;10.02;6.80;;;3.10;81.10;;;0.89;92.45;93953.25;4933202;28;20036;-67
2021/11/28 05:16:10;;;;;;;6.25;3.63;;;3.20;80.90;;;0.90;92.38;93950.47;4933578;28;20032;-66
2021/11/28 05:18:36;;;;;;;4.50;2.33;;;3.10;80.80;;;0.93;92.41;93962.28;4932450;28;20119;-67
2021/11/28 05:21:01;;;;;;;8.82;2.60;;;3.20;80.90;;;0.93;92.94;93964.88;4941342;29;20035;-67
2021/11/28 05:23:27;;;;;;;4.50;2.28;;;3.20;80.80;;;0.90;92.66;93960.03;4916319;29;20051;-67
2021/11/28 05:25:53;;;;;;;3.40;2.20;;;3.20;80.60;;;0.93;92.47;93970.06;4933394;28;20095;-67
2021/11/28 05:28:19;;;;;;;4.20;2.30;;;3.20;80.40;;;0.90;92.54;93963.44;4932857;28;20515;-66
2021/11/28 05:30:44;;;;;;;5.22;2.42;;;3.20;80.50;;;0.95;92.37;93967.28;4897390;28;20467;-66
2021/11/28 05:33:10;;;;;;;3.13;1.83;;;3.20;80.20;;;0.96;92.18;93959.34;4934033;28;20499;-67
2021/11/28 05:35:36;;;;;;;4.13;2.17;;;3.20;80.20;;;0.98;92.00;93962.53;4933841;28;20531;-66
2021/11/28 05:38:01;;;;;;;2.55;1.90;;;3.20;80.10;;;0.97;92.22;93966.09;4918951;28;20031;-65
2021/11/28 05:40:27;;;;;;;3.72;2.10;;;3.20;79.80;;;0.96;91.65;93961.91;4912385;28;20032;-67
2021/11/28 05:42:54;;;;;;;3.08;1.83;;;3.20;79.90;;;0.98;92.02;93965.13;4948458;28;20134;-66
2021/11/28 05:45:22;;;;;;;4.13;1.92;;;3.20;80.00;;;0.97;92.20;93971.28;4916888;29;20508;-66
2021/11/28 05:47:49;;;;;;;3.85;1.88;;;3.20;80.10;;;0.97;92.42;93978.25;4901611;29;20043;-65
2021/11/28 05:50:14;;;;;;;5.28;2.33;;;3.20;79.90;;;0.95;92.03;93978.44;4933937;28;20039;-66
2021/11/28 05:52:40;;;;;;;3.20;2.08;;;3.20;80.00;;;0.98;92.31;93982.44;4931928;28;20040;-65
2021/11/28 05:55:07;;;;;;;3.40;2.28;;;3.20;80.10;;;0.96;92.06;93980.03;4932265;28;20036;-65
2021/11/28 05:57:32;;;;;;;4.20;2.00;;;3.20;80.30;;;1.00;92.55;93991.63;4916874;29;20040;-67
2021/11/28 05:59:58;;;;;;;4.20;2.50;;;3.20;80.20;;;1.00;92.35;93991.63;4947681;28;20261;-66
2021/11/28 06:02:24;;;;;;;3.60;2.15;;;3.20;80.20;;;0.99;91.98;93997.78;4933450;28;20091;-66
2021/11/28 06:04:50;;;;;;;4.38;2.17;;;3.10;80.20;;;0.96;91.86;93992.16;4915590;28;20048;-65
2021/11/28 06:07:15;;;;;;;3.85;1.83;;;3.20;80.30;;;0.98;91.62;93988.41;4916630;29;20047;-66
2021/11/28 06:09:41;;;;;;;2.83;1.88;;;3.10;80.20;;;0.98;92.16;93988.41;4900852;29;20051;-65
2021/11/28 06:12:07;;;;;;;3.75;2.10;;;3.20;80.30;;;0.96;91.70;93982.63;4897284;29;20040;-65
2021/11/28 06:14:33;;;;;;;3.92;1.90;;;3.10;80.40;;;0.98;91.59;93988.41;4882209;29;20063;-66
2021/11/28 06:17:00;;;;;;;3.78;2.05;;;3.10;80.40;;;0.96;91.59;93982.63;4917862;28;20499;-66
2021/11/28 06:19:26;;;;;;;3.25;2.10;;;3.20;80.50;;;0.95;92.04;93988.78;4930955;28;20131;-66
2021/11/28 06:21:52;;;;;;;3.75;2.00;;;3.10;80.60;;;0.96;91.72;93990.38;4932414;28;20039;-66
2021/11/28 06:24:18;;;;;;;3.80;2.10;;;3.10;80.60;;;0.97;92.54;93993.78;4916149;29;20186;-66
2021/11/28 06:26:43;;;;;;;6.20;2.28;;;3.20;80.50;;;0.95;92.05;93983.59;4931621;28;20095;-66
2021/11/28 06:29:09;;;;;;;3.45;1.92;;;3.10;80.50;;;0.94;92.48;93994.16;4916396;29;20050;-66
2021/11/28 06:31:35;;;;;;;3.15;2.00;;;3.10;80.60;;;0.95;92.45;93993.97;4931450;28;20054;-66
2021/11/28 06:34:00;;;;;;;2.78;2.10;;;3.10;80.60;;;0.92;91.63;93994.31;4931855;28;20193;-66
2021/11/28 06:36:26;;;;;;;4.78;2.47;;;3.10;80.60;;;0.86;92.17;93987.25;4931346;29;20078;-66
2021/11/28 06:38:52;;;;;;;3.55;2.42;;;3.00;80.90;;;0.89;91.65;93994.66;4925686;28;20036;-69
2021/11/28 06:41:20;;;;;;;3.65;2.33;;;3.00;80.90;;;0.87;91.60;94001.81;4912350;29;20082;-68
2021/11/28 06:43:46;;;;;;;4.65;2.40;;;3.00;81.00;;;0.82;91.97;93983.44;4920958;29;20518;-68
2021/11/28 06:46:12;;;;;;;4.70;2.58;;;2.90;81.20;;;0.87;91.84;94001.81;4915090;29;20114;-65
2021/11/28 06:48:37;;;;;;;7.43;2.90;;;3.00;81.10;;;0.86;91.77;94006.19;4929427;28;20067;-65
2021/11/28 06:51:03;;;;;;;7.10;3.33;;;3.00;81.00;;;0.83;92.90;94003.97;4940327;28;20035;-64
2021/11/28 06:53:29;;;;;;;10.20;4.90;;;3.00;81.20;;;0.83;92.84;94000.56;4919199;29;20082;-65
2021/11/28 06:55:55;;;;;;;11.80;7.88;;;3.00;81.30;;;0.84;92.62;94012.53;4918202;29;20522;-65
2021/11/28 06:58:21;;;;;;;10.13;6.65;;;3.00;81.50;;;0.83;92.37;94006.53;4932215;28;20055;-65
2021/11/28 07:00:47;;;;;;;8.15;5.20;;;3.00;81.50;;;0.85;92.45;94009.75;4915057;28;20028;-65
2021/11/28 07:03:13;;;;;;;8.77;3.67;;;3.00;81.50;;;0.84;92.93;94012.53;4915653;29;20031;-65
2021/11/28 07:05:42;;;;;;;7.60;4.13;;;2.90;81.40;;;0.82;93.38;94006.72;4939720;28;20047;-65
2021/11/28 07:08:08;;;;;;;10.02;5.40;;;2.90;81.70;;;0.80;92.99;94014.66;4937903;28;20035;-64
2021/11/28 07:10:34;;;;;;;12.43;6.47;;;2.80;82.00;;;0.80;92.99;94016.47;4918315;28;20048;-64
2021/11/28 07:13:00;;;;;;;10.15;6.03;;;2.90;82.20;;;0.77;92.73;94017.63;4922265;28;20574;-64
2021/11/28 07:15:25;;;;;;;8.95;5.32;;;2.80;82.20;;;0.74;93.23;94014.59;4930979;28;20070;-65
2021/11/28 07:17:51;;;;;;;8.50;4.95;;;2.80;82.50;;;0.76;93.62;94025.56;4930566;28;20126;-65
2021/11/28 07:20:17;;;;;;;7.32;4.75;;;2.80;82.50;;;0.74;93.63;94019.78;4911058;29;20039;-65
2021/11/28 07:22:42;;;;;;;10.13;5.50;;;2.80;82.60;;;0.73;93.30;94018.16;4941862;28;20142;-65
2021/11/28 07:25:08;;;;;;;6.05;3.60;;;2.80;82.80;;;0.69;93.79;94020.31;4932071;28;20034;-65
2021/11/28 07:27:34;;;;;;;9.07;5.18;;;2.70;82.60;;;0.64;93.53;94011.47;4878795;29;20043;-64
2021/11/28 07:30:02;;;;;;;8.77;5.72;;;2.70;82.90;;;0.68;94.34;94023.06;4928098;28;20146;-65
2021/11/28 07:32:28;;;;;;;9.27;4.38;;;2.70;83.10;;;0.66;94.12;94025.81;4930032;28;20035;-65
2021/11/28 07:34:53;;;;;;;11.13;5.80;;;2.70;83.20;;;0.63;94.15;94017.63;4931117;28;20062;-69
2021/11/28 07:37:19;;;;;;;10.77;6.30;;;2.60;83.20;;;0.60;93.97;94021.38;4899139;29;20032;-67
2021/11/28 07:39:45;;;;;;;10.57;5.65;;;2.60;83.80;;;0.56;94.02;94013.19;4911856;29;20036;-67
2021/11/28 07:42:11;;;;;;;8.15;4.70;;;2.60;83.70;;;0.59;94.30;94020.56;4914165;28;20035;-67
2021/11/28 07:44:37;;;;;;;6.80;4.10;;;2.70;83.50;;;0.58;94.65;94024.16;4914513;28;20118;-69
2021/11/28 07:47:03;;;;;;;7.28;4.47;;;2.60;83.70;;;0.56;94.46;94022.72;4898914;29;20039;-67
2021/11/28 07:49:29;;;;;;;5.55;4.05;;;2.60;83.70;;;0.57;94.79;94030.31;4930540;28;20047;-68
2021/11/28 07:51:55;;;;;;;5.60;4.00;;;2.70;83.60;;;0.56;94.54;94028.69;4931081;28;20059;-68
2021/11/28 07:54:21;;;;;;;5.40;3.78;;;2.60;83.70;;;0.55;94.52;94021.91;4914486;29;20036;-67
2021/11/28 07:56:47;;;;;;;6.07;3.95;;;2.60;83.80;;;0.51;94.59;94018.09;4914119;28;20469;-68
2021/11/28 07:59:13;;;;;;;7.25;4.00;;;2.70;83.70;;;0.54;94.79;94027.28;4930224;29;20040;-67
2021/11/28 08:01:39;;;;;;;6.60;4.60;;;2.60;83.70;;;0.52;95.45;94030.03;4930227;28;20041;-69
2021/11/28 08:04:05;;;;;;;11.18;7.82;;;2.60;83.90;;;0.51;95.30;94028.44;4930756;28;20087;-66
2021/11/28 08:06:30;;;;;;;9.65;5.55;;;2.60;84.00;;;0.55;95.01;94023.69;4933142;28;20052;-66
2021/11/28 08:08:56;;;;;;;8.20;5.53;;;2.70;83.70;;;0.61;94.77;94028.94;4902321;28;20047;-65
2021/11/28 08:11:22;;;;;;;6.43;4.85;;;2.80;83.50;;;0.64;95.03;94032.16;4935401;28;20036;-66
2021/11/28 08:13:48;;;;;;;6.35;4.15;;;2.90;83.10;;;0.66;95.34;94023.25;4902395;29;20047;-66
2021/11/28 08:16:14;;;;;;;7.53;3.85;;;2.80;83.10;;;0.70;95.54;94026.28;4918623;29;20050;-66
2021/11/28 08:18:40;;;;;;;7.03;4.03;;;2.90;82.90;;;0.76;94.93;94025.56;4934599;28;20043;-66
2021/11/28 08:21:06;;;;;;;4.13;3.20;;;3.00;82.40;;;0.79;95.05;94020.03;4927740;29;20466;-65
2021/11/28 08:23:32;;;;;;;3.35;2.63;;;3.10;82.50;;;0.86;94.43;94026.09;4937205;28;20036;-66
2021/11/28 08:25:58;;;;;;;5.40;2.85;;;3.20;81.80;;;0.93;94.78;94021.81;4934841;28;20040;-65
2021/11/28 08:28:24;;;;;;;3.92;2.38;;;3.30;81.60;;;0.98;95.10;94014.28;4917991;29;20522;-66
2021/11/28 08:30:49;;;;;;;5.35;2.40;;;3.40;81.10;;;1.08;94.49;94025.16;4934657;28;20538;-66
2021/11/28 08:33:15;;;;;;;6.50;2.80;;;3.50;80.70;;;1.17;94.18;94024.09;4936809;28;20129;-67
2021/11/28 08:35:41;;;;;;;5.32;2.40;;;3.60;80.30;;;1.25;93.43;94024.94;4922527;29;20066;-65
2021/11/28 08:38:07;;;;;;;4.65;2.45;;;3.60;79.90;;;1.32;93.23;94031.78;4914180;29;20116;-64
2021/11/28 08:40:32;;;;;;;4.18;2.10;;;3.80;79.50;;;1.39;93.66;94027.50;4916267;28;20091;-65
2021/11/28 08:42:58;;;;;;;3.42;1.60;;;3.80;79.10;;;1.38;92.72;94031.09;4931497;28;20083;-65
2021/11/28 08:45:24;;;;;;;4.43;1.80;;;3.70;79.00;;;1.44;92.48;94034.72;4946225;28;20051;-69
2021/11/28 08:47:50;;;;;;;4.10;2.00;;;3.70;78.90;;;1.47;93.02;94039.53;4937041;28;20042;-68
2021/11/28 08:50:16;;;;;;;3.83;1.83;;;3.70;79.30;;;1.50;92.16;94033.97;4915980;29;20491;-66
2021/11/28 08:52:45;;;;;;;3.85;1.90;;;3.80;78.90;;;1.52;92.41;94030.22;4927911;28;20047;-70
2021/11/28 08:55:11;;;;;;;3.78;1.40;;;3.80;78.90;;;1.56;92.07;94043.59;4918221;29;20028;-69
2021/11/28 08:57:36;;;;;;;3.88;1.95;;;3.80;78.70;;;1.58;92.22;94043.41;4917075;29;20418;-68
2021/11/28 09:00:07;;;;;;;2.35;1.50;;;3.80;78.60;;;1.57;91.94;94044.41;4917367;29;20031;-69
2021/11/28 09:02:32;;;;;;;3.00;1.87;;;3.80;78.70;;;1.57;91.88;94050.38;4917480;29;20047;-69
2021/11/28 09:04:58;;;;;;;3.58;1.80;;;3.80;78.60;;;1.57;91.34;94050.38;4909317;28;20318;-66
2021/11/28 09:07:24;;;;;;;3.58;1.98;;;3.70;78.80;;;1.59;91.14;94053.63;4931599;29;20035;-67
2021/11/28 09:09:49;;;;;;;4.47;2.30;;;3.80;79.10;;;1.65;91.39;94058.06;4916514;29;20044;-66
2021/11/28 09:12:15;;;;;;;5.40;2.80;;;4.00;78.70;;;1.71;92.02;94054.72;4933582;28;20471;-66
2021/11/28 09:14:41;;;;;;;5.32;2.40;;;4.10;78.70;;;1.73;91.60;94057.94;4913403;28;20404;-66
2021/11/28 09:17:07;;;;;;;4.10;2.72;;;4.10;78.40;;;1.79;92.00;94062.34;4928192;29;20460;-66
2021/11/28 09:22:34;;;;;;;4.40;2.20;;;4.00;78.80;;;1.81;91.79;94059.59;4924971;29;20094;-67
2021/11/28 09:25:00;;;;;;;3.88;2.35;;;4.10;78.50;;;1.87;91.31;94053.69;4920279;28;20469;-67
2021/11/28 09:27:27;;;;;;;5.88;2.47;;;4.30;78.40;;;1.95;91.40;94053.53;4938602;28;20031;-66
2021/11/28 09:29:52;;;;;;;5.30;2.10;;;4.50;78.40;;;2.01;91.62;94046.81;4916917;29;20048;-66
2021/11/28 09:32:18;;;;;;;4.57;2.17;;;4.50;77.60;;;2.02;91.07;94043.22;4932596;28;20841;-66
2021/11/28 09:34:44;;;;;;;5.03;2.55;;;4.50;77.30;;;2.09;90.80;94049.28;4916445;28;20052;-66
2021/11/28 09:37:11;;;;;;;8.13;3.67;;;4.60;77.50;;;2.16;90.96;94044.94;4932610;28;20038;-66
2021/11/28 09:39:39;;;;;;;13.38;7.75;;;4.70;77.50;;;2.25;91.43;94049.00;4917054;28;20583;-64
2021/11/28 09:42:07;;;;;;;5.53;2.80;;;4.80;77.00;;;2.33;90.88;94043.69;4930171;28;20040;-66
2021/11/28 09:44:37;;;;;;;3.25;1.73;;;4.90;76.10;;;2.38;90.51;94049.09;4885541;29;20617;-66
2021/11/28 09:47:04;;;;;;;5.50;2.03;;;5.00;76.00;;;2.47;90.51;94041.97;4931292;28;20031;-65
2021/11/28 09:49:30;;;;;;;7.47;2.28;;;5.10;75.90;;;2.56;90.53;94042.63;4916301;29;20499;-64
2021/11/28 09:52:05;;;;;;;4.05;1.77;;;5.20;75.60;;;2.61;89.80;94037.66;4933286;28;20168;-65
2021/11/28 09:54:32;;;;;;;4.25;1.70;;;5.20;75.00;;;2.69;89.59;94045.28;4931767;28;20047;-65
2021/11/28 09:56:57;;;;;;;5.00;1.63;;;5.40;74.40;;;2.72;89.58;94029.38;4931159;28;20544;-65
2021/11/28 09:59:23;;;;;;;4.55;1.60;;;5.30;74.10;;;2.78;89.03;94022.59;4933127;28;20059;-68
2021/11/28 10:01:49;;;;;;;4.18;1.73;;;5.30;75.10;;;2.82;89.19;94024.63;4930105;28;20114;-68
2021/11/28 10:04:15;;;;;;;6.82;2.60;;;5.20;74.90;;;2.85;88.62;94032.00;4900210;29;20075;-66
2021/11/28 10:06:41;;;;;;;4.38;1.70;;;5.10;75.60;;;2.78;88.28;94033.78;4923904;28;20031;-66
2021/11/28 10:09:08;;;;;;;9.68;2.72;;;4.80;76.20;;;2.73;88.46;94033.56;4933594;28;20039;-67
2021/11/28 10:11:39;;;;;;;3.85;1.85;;;4.80;76.80;;;2.67;88.16;94026.53;4932052;28;20032;-67
2021/11/28 10:14:07;;;;;;;4.35;1.85;;;4.70;76.90;;;2.59;88.62;94030.06;4934710;28;20036;-67
2021/11/28 10:16:33;;;;;;;4.22;2.63;;;4.60;77.90;;;2.54;88.69;94036.84;4908650;29;20035;-67
2021/11/28 10:18:59;;;;;;;4.30;2.17;;;4.60;78.00;;;2.51;88.62;94032.03;4931915;28;20036;-67
2021/11/28 10:21:27;;;;;;;5.35;2.72;;;4.50;77.20;;;2.43;88.92;94028.56;4900863;29;20504;-67
2021/11/28 10:24:16;;;;;;;20.65;12.07;;;4.40;78.20;;;2.37;89.52;94021.56;4932048;28;20027;-67
2021/11/28 10:26:59;;;;;;;9.27;4.90;;;4.40;78.60;;;2.34;89.18;94028.91;4918057;28;20099;-67
2021/11/28 10:29:30;;;;;;;5.93;4.18;;;4.30;78.60;;;2.26;89.49;94024.66;4917046;29;20036;-67
2021/11/28 10:31:58;;;;;;;6.43;3.75;;;4.30;78.80;;;2.29;89.40;94033.88;4918415;29;20028;-69
2021/11/28 10:34:44;;;;;;;9.13;3.33;;;4.40;78.70;;;2.27;89.73;94021.09;4933424;28;20163;-69